Main page
METAR-TAF:

METAR-TAF

Airports :

Olaya Herrera Airport

Medellín, Colombia

latitude: 06-13N, longitude: 075-36W, elevation: 1490 m

Current weather observation

The report was made 20 minutes ago, at 13:00 UTC
Calm wind
Temperature 19°C
Humidity 94%
Pressure 1023 hPa
Visibility: 5000 m
Scattered clouds at a height of 2000 ft
Broken clouds at a height of 8000 ft
light drizzle, haze

METAR: SKMD 281300Z 00000KT 8000 5000S -DZ HZ SCT020 BKN080 19/18 A3021 RERA

Time: 08:20 (13:20 UTC)


TAF: missing

Weather observations and forecasts of more than 4000 airports (METAR and TAF reports).

The available stations are represented by yellow and red dots on the map.

Hover mouse over dot to see the name of the station.

Then click to see weather observations and forecasts.

To change the map : click on the green buttons with a black cross to zoom in, on the green button with a dash to zoom out, or on the green arrows for adjacent maps.


METAR-TAF: